Georgetown, MA (01833)

8:24 PM EDT on July 27, 2016 (GMT -0400)
Bayberry Lane | | Change Station

Elev 102 ft 42.73 °N, 70.97 °W | Updated 3 seconds ago

Mostly Cloudy
Mostly Cloudy
77.4 °F
Feels Like 79 °F
N
0.0
Wind Variable Wind from NW
Gusts 0.0 mph

Today
High -- | Low -- °F
--% Chance of Precip.
Yesterday
High -- | Low -- °F
Precip. -- in
Pressure 29.88 in
Visibility 10.0 miles
Clouds Mostly Cloudy 8500 ft
Heat Index 79 °F
Dew Point 63 °F
Humidity 62%
Rainfall 0.00 in
Snow Depth Not available.
5:30 AM 8:09 PM
Last Quarter, 38% visible
METAR KLWM 272354Z 00000KT 10SM BKN085 27/16 A2989 RMK AO2 SLP119 T02720161 10344 20272 53002
Pressure 29.88 in
Visibility 10.0 miles
Clouds Mostly Cloudy 8500 ft
Heat Index 79 °F
Dew Point 63 °F
Humidity 62%
Rainfall 0.00 in
Snow Depth Not available.
5:30 AM 8:09 PM
Last Quarter, 38% visible
METAR KLWM 272354Z 00000KT 10SM BKN085 27/16 A2989 RMK AO2 SLP119 T02720161 10344 20272 53002

10-Day Weather Forecast

Almanac

Astronomy

Jul. 27, 2016 Rise Set
Actual Time
Civil Twilight
Nautical Twilight
Astronomical Twilight
Moon
Length of Visible Light
Length of Day
Tomorrow will be .
, % of the Moon is Illuminated

Today's Extremes

State Highs State Lows

Community

WunderPhotos

Upload Photos

1,927,975 photos uploaded!

WunderBlog® & News

Nearby

Air Quality

  Air Quality AQ Index Pollutant
Not available.

Snow Depth

Station Depth Elevation

Earthquake Activity

City Distance Mag. Time & Date
Minimum magnitude displayed is 2.5.

Coastal Water Temperatures

Place Temperature

Stations

Nearby Weather Stations

Station Location Temp. Windchill Dew Point Humidity Wind Precip. Elev Updated Type
                   

Watches & Warnings

There are currently no watches in effect.